Time;durP1;ratioP1;P1;durP2;ratioP2;P2;SDS_P1;SDS_P2;PMS_P1;PMS_P2;Temp;Humidity;BMP_temperature;BMP_pressure;BME280_temperature;BME280_humidity;BME280_pressure;Samples;Min_cycle;Max_cycle;Signal;HPM_P1;HPM_P2
2023/12/29 00:02:07;;;;;;;55.07;2.03;;;;;;;;;;5041479;28;20542;-72
2023/12/29 00:04:34;;;;;;;54.70;1.80;;;;;;;;;;5041432;28;20458;-72
2023/12/29 00:07:02;;;;;;;54.87;2.10;;;;;;;;;;5043017;28;20459;-71
2023/12/29 00:09:29;;;;;;;55.57;2.10;;;;;;;;;;5043324;28;20475;-71
2023/12/29 00:11:58;;;;;;;55.27;2.20;;;;;;;;;;5045952;28;20453;-72
2023/12/29 00:14:26;;;;;;;55.17;1.90;;;;;;;;;;5043688;28;20526;-71
2023/12/29 00:16:57;;;;;;;55.53;1.90;;;;;;;;;;5043376;28;20914;-72
2023/12/29 00:19:24;;;;;;;55.30;1.80;;;;;;;;;;5043534;28;20528;-72
2023/12/29 00:21:51;;;;;;;55.50;1.70;;;;;;;;;;5042568;28;20451;-72
2023/12/29 00:24:18;;;;;;;55.57;2.30;;;;;;;;;;5043430;28;20449;-71
2023/12/29 00:26:45;;;;;;;55.00;1.90;;;;;;;;;;5044569;28;20457;-72
2023/12/29 00:29:14;;;;;;;55.50;1.80;;;;;;;;;;5044174;28;20458;-72
2023/12/29 00:31:42;;;;;;;55.27;1.83;;;;;;;;;;5042534;28;20473;-71
2023/12/29 00:34:10;;;;;;;55.03;1.80;;;;;;;;;;5042731;28;20446;-71
2023/12/29 00:36:37;;;;;;;55.50;1.90;;;;;;;;;;5042462;28;20457;-72
2023/12/29 00:39:04;;;;;;;55.30;1.87;;;;;;;;;;5042544;28;20528;-72
2023/12/29 00:41:31;;;;;;;55.30;1.67;;;;;;;;;;5043019;28;20447;-72
2023/12/29 00:43:58;;;;;;;55.37;1.80;;;;;;;;;;5040827;28;20500;-72
2023/12/29 00:46:26;;;;;;;55.40;1.80;;;;;;;;;;5040969;28;20458;-72
2023/12/29 00:48:54;;;;;;;54.83;1.87;;;;;;;;;;5041576;28;20448;-71
2023/12/29 00:51:21;;;;;;;55.27;1.80;;;;;;;;;;5043416;28;20453;-71
2023/12/29 00:53:48;;;;;;;55.70;1.73;;;;;;;;;;5042309;28;20474;-70
2023/12/29 00:56:15;;;;;;;54.93;1.83;;;;;;;;;;5042991;28;20451;-72
2023/12/29 00:58:42;;;;;;;55.60;1.80;;;;;;;;;;5043792;28;20458;-70
2023/12/29 01:01:11;;;;;;;55.27;1.80;;;;;;;;;;5043781;28;20514;-71
2023/12/29 01:03:39;;;;;;;54.50;1.70;;;;;;;;;;5043243;28;20518;-70
2023/12/29 01:06:06;;;;;;;55.67;1.83;;;;;;;;;;5055394;28;20446;-70
2023/12/29 01:08:34;;;;;;;55.27;2.00;;;;;;;;;;5062688;28;20455;-71
2023/12/29 01:11:01;;;;;;;55.27;1.83;;;;;;;;;;5062323;28;20446;-71
2023/12/29 01:13:28;;;;;;;55.43;2.10;;;;;;;;;;5063252;28;20557;-70
2023/12/29 01:15:55;;;;;;;55.57;1.97;;;;;;;;;;5062014;28;20816;-71
2023/12/29 01:18:22;;;;;;;55.23;1.90;;;;;;;;;;5062622;28;20484;-69
2023/12/29 01:20:51;;;;;;;55.57;1.90;;;;;;;;;;5062049;28;20452;-71
2023/12/29 01:23:18;;;;;;;55.37;1.83;;;;;;;;;;5062296;28;20581;-71
2023/12/29 01:25:45;;;;;;;55.80;1.90;;;;;;;;;;5063313;28;20956;-71
2023/12/29 01:28:12;;;;;;;55.80;2.10;;;;;;;;;;5062322;28;20496;-72
2023/12/29 01:30:39;;;;;;;55.50;1.83;;;;;;;;;;5062820;28;20461;-70
2023/12/29 01:33:07;;;;;;;56.63;2.17;;;;;;;;;;5062711;28;20484;-71
2023/12/29 01:35:34;;;;;;;55.50;1.93;;;;;;;;;;5062504;28;20451;-71
2023/12/29 01:38:04;;;;;;;55.33;1.80;;;;;;;;;;5063144;28;20474;-69
2023/12/29 01:40:31;;;;;;;54.60;1.90;;;;;;;;;;5062197;28;20474;-70
2023/12/29 01:42:58;;;;;;;55.47;1.70;;;;;;;;;;5061293;28;20498;-72
2023/12/29 01:45:26;;;;;;;55.30;1.77;;;;;;;;;;5062675;28;20462;-69
2023/12/29 01:47:54;;;;;;;55.10;1.70;;;;;;;;;;5062846;28;20509;-71
2023/12/29 01:50:22;;;;;;;55.80;2.07;;;;;;;;;;5061721;28;20451;-71
2023/12/29 01:52:51;;;;;;;55.37;1.77;;;;;;;;;;5062201;28;20534;-70
2023/12/29 01:55:21;;;;;;;55.30;1.70;;;;;;;;;;5062241;28;20518;-71
2023/12/29 01:57:49;;;;;;;55.43;1.80;;;;;;;;;;5062039;28;20816;-71
2023/12/29 02:00:17;;;;;;;55.60;1.80;;;;;;;;;;5061441;28;20458;-71
2023/12/29 02:02:45;;;;;;;55.30;1.83;;;;;;;;;;5061634;28;20497;-71
2023/12/29 02:05:14;;;;;;;55.27;1.70;;;;;;;;;;5062427;28;20465;-72
2023/12/29 02:07:41;;;;;;;55.60;1.90;;;;;;;;;;5061556;28;20468;-69
2023/12/29 02:10:09;;;;;;;55.47;2.13;;;;;;;;;;5060936;28;20460;-71
2023/12/29 02:12:37;;;;;;;55.70;1.80;;;;;;;;;;5063699;28;20475;-70
2023/12/29 02:15:06;;;;;;;55.43;2.20;;;;;;;;;;5061417;28;20453;-70
2023/12/29 02:17:35;;;;;;;55.30;1.73;;;;;;;;;;5061235;28;20448;-71
2023/12/29 02:20:02;;;;;;;55.57;2.00;;;;;;;;;;5060310;28;20450;-71
2023/12/29 02:22:29;;;;;;;55.70;2.20;;;;;;;;;;5061010;28;20868;-71
2023/12/29 02:24:58;;;;;;;57.03;2.60;;;;;;;;;;5060082;28;20456;-71
2023/12/29 02:27:31;;;;;;;55.60;2.07;;;;;;;;;;5059260;28;20957;-71
2023/12/29 02:30:13;;;;;;;55.17;1.77;;;;;;;;;;5058126;28;20454;-70
2023/12/29 02:32:42;;;;;;;55.67;1.90;;;;;;;;;;5058438;28;20470;-71
2023/12/29 02:35:11;;;;;;;54.87;1.80;;;;;;;;;;5058959;28;20454;-71
2023/12/29 02:37:38;;;;;;;55.60;2.00;;;;;;;;;;5060816;28;20450;-70
2023/12/29 02:40:08;;;;;;;55.40;1.93;;;;;;;;;;5060347;28;20833;-70
2023/12/29 02:42:36;;;;;;;55.77;1.80;;;;;;;;;;5059844;28;20470;-70
2023/12/29 02:45:03;;;;;;;55.67;2.50;;;;;;;;;;5060258;28;20452;-70
2023/12/29 02:50:34;;;;;;;55.27;1.77;;;;;;;;;;5062136;28;20432;-71
2023/12/29 02:53:01;;;;;;;55.60;1.83;;;;;;;;;;5061262;28;20467;-71
2023/12/29 02:55:29;;;;;;;55.23;2.10;;;;;;;;;;5062887;28;20473;-72
2023/12/29 02:57:56;;;;;;;55.60;1.83;;;;;;;;;;5062577;28;20959;-71
2023/12/29 03:00:23;;;;;;;55.07;1.53;;;;;;;;;;5062175;28;20537;-71
2023/12/29 03:02:51;;;;;;;55.70;2.30;;;;;;;;;;5062644;28;20543;-71
2023/12/29 03:05:18;;;;;;;55.57;2.53;;;;;;;;;;5062185;28;20518;-71
2023/12/29 03:07:45;;;;;;;55.47;1.90;;;;;;;;;;5063161;28;20820;-70
2023/12/29 03:10:12;;;;;;;55.70;2.13;;;;;;;;;;5063083;28;20470;-71
2023/12/29 03:12:40;;;;;;;55.27;1.80;;;;;;;;;;5062588;28;20467;-71
2023/12/29 03:15:07;;;;;;;55.60;2.00;;;;;;;;;;5062307;28;21184;-71
2023/12/29 03:17:35;;;;;;;55.20;1.80;;;;;;;;;;5062774;28;20458;-71
2023/12/29 03:20:02;;;;;;;55.07;1.90;;;;;;;;;;5061091;28;20454;-71
2023/12/29 03:22:29;;;;;;;55.57;2.00;;;;;;;;;;5061304;28;20506;-71
2023/12/29 03:24:56;;;;;;;55.43;1.90;;;;;;;;;;5062836;28;20496;-71
2023/12/29 03:27:24;;;;;;;55.43;2.00;;;;;;;;;;5063394;28;20469;-71
2023/12/29 03:29:52;;;;;;;55.47;1.77;;;;;;;;;;5063565;28;20538;-70
2023/12/29 03:32:19;;;;;;;55.57;1.90;;;;;;;;;;5063605;28;20474;-71
2023/12/29 03:34:46;;;;;;;55.60;1.80;;;;;;;;;;5063478;28;20538;-72
2023/12/29 03:37:13;;;;;;;55.40;2.03;;;;;;;;;;5063844;28;20442;-71
2023/12/29 03:39:41;;;;;;;54.93;1.90;;;;;;;;;;5062205;28;20836;-72
2023/12/29 03:42:08;;;;;;;55.60;2.20;;;;;;;;;;5062112;28;20912;-71
2023/12/29 03:44:35;;;;;;;55.50;1.80;;;;;;;;;;5060942;28;20654;-72
2023/12/29 03:47:03;;;;;;;54.93;1.90;;;;;;;;;;5062365;28;20460;-72
2023/12/29 03:49:30;;;;;;;55.30;2.00;;;;;;;;;;5062604;28;20531;-71
2023/12/29 03:51:57;;;;;;;55.60;2.10;;;;;;;;;;5064505;28;20440;-70
2023/12/29 03:54:25;;;;;;;55.37;2.10;;;;;;;;;;5066567;28;20521;-70
2023/12/29 03:56:52;;;;;;;55.90;2.30;;;;;;;;;;5065002;28;20456;-71
2023/12/29 03:59:19;;;;;;;55.40;2.00;;;;;;;;;;5062611;28;20466;-72
2023/12/29 04:01:46;;;;;;;55.37;2.20;;;;;;;;;;5045171;28;20452;-72
2023/12/29 04:04:14;;;;;;;55.70;1.80;;;;;;;;;;5058741;28;20498;-72
2023/12/29 04:06:41;;;;;;;55.07;1.87;;;;;;;;;;5048136;28;20458;-70
2023/12/29 04:09:09;;;;;;;55.33;1.80;;;;;;;;;;5053476;28;20462;-70
2023/12/29 04:11:36;;;;;;;54.97;1.93;;;;;;;;;;5059256;28;20465;-71
2023/12/29 04:14:03;;;;;;;55.50;2.00;;;;;;;;;;5043539;28;20472;-71
2023/12/29 04:16:30;;;;;;;55.40;2.00;;;;;;;;;;5046020;28;20457;-71
2023/12/29 04:18:57;;;;;;;55.27;1.97;;;;;;;;;;5042141;28;20530;-71
2023/12/29 04:21:25;;;;;;;55.20;2.00;;;;;;;;;;5039038;28;20462;-71
2023/12/29 04:23:52;;;;;;;55.17;1.97;;;;;;;;;;5048331;28;20502;-72
2023/12/29 04:26:20;;;;;;;55.37;2.00;;;;;;;;;;5040072;28;20462;-72
2023/12/29 04:28:47;;;;;;;55.90;2.60;;;;;;;;;;5040270;28;20470;-72
2023/12/29 04:31:14;;;;;;;56.87;2.63;;;;;;;;;;5040216;28;20454;-72
2023/12/29 04:33:41;;;;;;;55.57;2.17;;;;;;;;;;5039614;28;20557;-72
2023/12/29 04:36:08;;;;;;;54.93;1.70;;;;;;;;;;5040296;28;20810;-72
2023/12/29 04:38:36;;;;;;;54.93;1.80;;;;;;;;;;5039631;28;20454;-72
2023/12/29 04:41:04;;;;;;;55.47;2.23;;;;;;;;;;5040946;28;20447;-72
2023/12/29 04:43:31;;;;;;;55.57;2.20;;;;;;;;;;5040827;28;20575;-72
2023/12/29 04:45:58;;;;;;;55.70;1.80;;;;;;;;;;5039536;28;20518;-72
2023/12/29 04:48:25;;;;;;;54.90;1.77;;;;;;;;;;5039823;28;20471;-72
2023/12/29 04:50:52;;;;;;;55.07;1.80;;;;;;;;;;5039164;28;20546;-72
2023/12/29 04:53:19;;;;;;;55.50;1.90;;;;;;;;;;5049998;28;20985;-72
2023/12/29 04:55:47;;;;;;;55.77;2.00;;;;;;;;;;5038456;28;20695;-72
2023/12/29 04:58:15;;;;;;;54.97;1.80;;;;;;;;;;5039223;28;20527;-70
2023/12/29 05:00:42;;;;;;;55.60;1.50;;;;;;;;;;5038540;28;20446;-72
2023/12/29 05:03:09;;;;;;;55.27;1.80;;;;;;;;;;5038432;28;20487;-71
2023/12/29 05:05:36;;;;;;;55.70;2.07;;;;;;;;;;5039163;28;20492;-72
2023/12/29 05:08:03;;;;;;;55.37;1.90;;;;;;;;;;5038324;28;20460;-71
2023/12/29 05:10:30;;;;;;;55.60;2.07;;;;;;;;;;5037842;28;20464;-71
2023/12/29 05:12:59;;;;;;;55.27;1.93;;;;;;;;;;5038084;28;20514;-71
2023/12/29 05:15:26;;;;;;;55.50;1.90;;;;;;;;;;5038239;28;20457;-71
2023/12/29 05:17:53;;;;;;;55.47;2.10;;;;;;;;;;5038332;28;20458;-70
2023/12/29 05:20:20;;;;;;;54.90;1.80;;;;;;;;;;5050791;28;20446;-72
2023/12/29 05:22:47;;;;;;;55.80;2.23;;;;;;;;;;5058491;28;20561;-71
2023/12/29 05:25:14;;;;;;;55.17;2.20;;;;;;;;;;5058828;28;20495;-72
2023/12/29 05:27:41;;;;;;;55.43;1.90;;;;;;;;;;5061516;28;20457;-71
2023/12/29 05:30:10;;;;;;;55.80;2.30;;;;;;;;;;5059777;28;20460;-72
2023/12/29 05:32:37;;;;;;;55.80;2.10;;;;;;;;;;5063120;28;20478;-72
2023/12/29 05:35:05;;;;;;;55.50;2.10;;;;;;;;;;5061182;28;20487;-72
2023/12/29 05:37:32;;;;;;;55.50;1.70;;;;;;;;;;5065034;28;21013;-72
2023/12/29 05:39:59;;;;;;;55.50;2.10;;;;;;;;;;5065161;28;20537;-70
2023/12/29 05:42:26;;;;;;;54.97;1.90;;;;;;;;;;5064628;28;20471;-72
2023/12/29 05:44:53;;;;;;;55.50;2.10;;;;;;;;;;5064022;28;20515;-71
2023/12/29 05:47:22;;;;;;;56.27;2.57;;;;;;;;;;5042802;28;20452;-71
2023/12/29 05:49:49;;;;;;;55.07;2.00;;;;;;;;;;5044741;28;20448;-72
2023/12/29 05:52:16;;;;;;;55.20;1.90;;;;;;;;;;5047860;28;20474;-70
2023/12/29 05:54:43;;;;;;;54.97;2.00;;;;;;;;;;5045869;28;20478;-71
2023/12/29 05:57:11;;;;;;;55.50;2.63;;;;;;;;;;5048517;28;20446;-71
2023/12/29 05:59:38;;;;;;;55.67;2.30;;;;;;;;;;5049393;28;20452;-71
2023/12/29 06:02:05;;;;;;;55.40;2.10;;;;;;;;;;5050134;28;20447;-71
2023/12/29 06:04:34;;;;;;;55.80;2.10;;;;;;;;;;5052548;28;20493;-71
2023/12/29 06:07:01;;;;;;;55.47;2.00;;;;;;;;;;5051850;28;20470;-70
2023/12/29 06:09:28;;;;;;;55.47;2.20;;;;;;;;;;5051921;28;20463;-70
2023/12/29 06:11:55;;;;;;;54.50;1.90;;;;;;;;;;5051211;28;20473;-72
2023/12/29 06:14:22;;;;;;;55.33;2.10;;;;;;;;;;5057574;28;20498;-71
2023/12/29 06:16:50;;;;;;;55.50;2.37;;;;;;;;;;5066368;28;20445;-70
2023/12/29 06:19:17;;;;;;;55.43;2.10;;;;;;;;;;5065741;28;20454;-71
2023/12/29 06:21:45;;;;;;;55.53;2.10;;;;;;;;;;5066454;28;20798;-70
2023/12/29 06:24:13;;;;;;;55.37;2.30;;;;;;;;;;5069176;28;20489;-70
2023/12/29 06:26:42;;;;;;;55.40;1.90;;;;;;;;;;5069567;28;20480;-71
2023/12/29 06:29:10;;;;;;;55.23;1.90;;;;;;;;;;5069668;28;20826;-71
2023/12/29 06:31:37;;;;;;;55.70;2.70;;;;;;;;;;5054483;28;20452;-71
2023/12/29 06:34:04;;;;;;;55.90;2.17;;;;;;;;;;5048629;28;20512;-70
2023/12/29 06:36:31;;;;;;;55.40;1.80;;;;;;;;;;5049840;28;20443;-71
2023/12/29 06:39:00;;;;;;;55.70;2.10;;;;;;;;;;5057337;28;20478;-70
2023/12/29 06:41:26;;;;;;;55.77;2.03;;;;;;;;;;5049265;28;20449;-70
2023/12/29 06:43:53;;;;;;;55.60;2.23;;;;;;;;;;5048557;28;20973;-71
2023/12/29 06:46:20;;;;;;;55.63;2.50;;;;;;;;;;5048964;28;20448;-70
2023/12/29 06:48:49;;;;;;;55.67;2.30;;;;;;;;;;5064232;28;20485;-70
2023/12/29 06:51:20;;;;;;;56.10;3.20;;;;;;;;;;5054742;28;20451;-71
2023/12/29 06:53:47;;;;;;;55.33;2.20;;;;;;;;;;5054391;28;20847;-70
2023/12/29 06:56:17;;;;;;;55.47;2.30;;;;;;;;;;5049180;28;20447;-70
2023/12/29 06:58:45;;;;;;;55.60;2.30;;;;;;;;;;5049147;28;20801;-71
2023/12/29 07:01:12;;;;;;;55.07;2.00;;;;;;;;;;5049050;28;20884;-70
2023/12/29 07:03:39;;;;;;;55.70;1.73;;;;;;;;;;5048263;28;20483;-70
2023/12/29 07:06:06;;;;;;;55.47;2.40;;;;;;;;;;5049503;28;20554;-71
2023/12/29 07:08:34;;;;;;;55.67;2.33;;;;;;;;;;5049283;28;20445;-70
2023/12/29 07:11:01;;;;;;;55.23;2.10;;;;;;;;;;5049231;28;20671;-70
2023/12/29 07:13:29;;;;;;;55.57;2.30;;;;;;;;;;5049085;28;20480;-71
2023/12/29 07:15:57;;;;;;;55.77;2.00;;;;;;;;;;5048612;28;20446;-70
2023/12/29 07:18:24;;;;;;;55.70;2.17;;;;;;;;;;5049470;28;20444;-70
2023/12/29 07:20:51;;;;;;;55.37;2.10;;;;;;;;;;5049582;28;20447;-70
2023/12/29 07:23:18;;;;;;;55.50;2.23;;;;;;;;;;5049638;28;20496;-70
2023/12/29 07:25:45;;;;;;;55.60;2.47;;;;;;;;;;5049816;28;20490;-70
2023/12/29 07:28:13;;;;;;;55.57;2.20;;;;;;;;;;5049609;28;20465;-72
2023/12/29 07:30:41;;;;;;;55.60;2.30;;;;;;;;;;5052762;28;20837;-70
2023/12/29 07:33:08;;;;;;;55.67;2.17;;;;;;;;;;5051287;28;20473;-71
2023/12/29 07:35:35;;;;;;;55.57;2.40;;;;;;;;;;5050853;28;20486;-71
2023/12/29 07:38:02;;;;;;;55.60;2.77;;;;;;;;;;5050083;28;20444;-71
2023/12/29 07:40:30;;;;;;;55.60;2.07;;;;;;;;;;5045829;28;20470;-70
2023/12/29 07:42:57;;;;;;;55.37;1.90;;;;;;;;;;5046854;28;20465;-71
2023/12/29 07:45:24;;;;;;;55.47;2.10;;;;;;;;;;5047274;28;20522;-72
2023/12/29 07:47:53;;;;;;;55.60;2.10;;;;;;;;;;5047939;28;20455;-72
2023/12/29 07:50:20;;;;;;;55.70;1.70;;;;;;;;;;5047941;28;20456;-70
2023/12/29 07:52:47;;;;;;;55.47;2.00;;;;;;;;;;5046922;28;20486;-72
2023/12/29 07:55:16;;;;;;;54.90;1.93;;;;;;;;;;5048746;28;20466;-72
2023/12/29 07:57:43;;;;;;;55.30;2.20;;;;;;;;;;5049118;28;20840;-71
2023/12/29 08:00:11;;;;;;;55.60;1.83;;;;;;;;;;5048988;28;20474;-71
2023/12/29 08:02:38;;;;;;;55.53;2.00;;;;;;;;;;5049513;28;20479;-70
2023/12/29 08:05:08;;;;;;;55.37;2.00;;;;;;;;;;5049541;28;20552;-71
2023/12/29 08:07:36;;;;;;;55.47;2.00;;;;;;;;;;5051306;28;20458;-72
2023/12/29 08:10:04;;;;;;;55.60;2.20;;;;;;;;;;5049710;28;20457;-70
2023/12/29 08:12:33;;;;;;;55.47;2.30;;;;;;;;;;5052674;28;20468;-72
2023/12/29 08:15:00;;;;;;;55.40;2.20;;;;;;;;;;5054288;28;20449;-72
2023/12/29 08:17:28;;;;;;;55.37;2.10;;;;;;;;;;5069012;28;20423;-68
2023/12/29 08:20:09;;;;;;;55.50;2.17;;;;;;;;;;5077699;28;20443;-69
2023/12/29 08:22:50;;;;;;;55.50;2.10;;;;;;;;;;5076007;28;20481;-68
2023/12/29 08:25:18;;;;;;;55.40;2.20;;;;;;;;;;5076908;28;20469;-68
2023/12/29 08:27:48;;;;;;;55.37;2.17;;;;;;;;;;5077025;28;20449;-68
2023/12/29 08:30:17;;;;;;;54.57;1.80;;;;;;;;;;5069065;28;20455;-69
2023/12/29 08:32:58;;;;;;;55.27;1.90;;;;;;;;;;5077727;28;20463;-68
2023/12/29 08:35:25;;;;;;;55.40;2.00;;;;;;;;;;5077467;28;20451;-69
2023/12/29 08:37:54;;;;;;;55.30;1.90;;;;;;;;;;5077119;28;20443;-71
2023/12/29 08:40:22;;;;;;;55.60;2.37;;;;;;;;;;5077854;28;20468;-68
2023/12/29 08:42:49;;;;;;;55.37;2.43;;;;;;;;;;5077418;28;20475;-68
2023/12/29 08:48:11;;;;;;;55.40;2.00;;;;;;;;;;5077533;28;20468;-68
2023/12/29 08:53:35;;;;;;;55.30;1.70;;;;;;;;;;5035551;28;20491;-68
2023/12/29 09:02:00;;;;;;;55.57;2.00;;;;;;;;;;4845862;29;20436;-68
2023/12/29 09:04:27;;;;;;;55.33;1.87;;;;;;;;;;4835981;29;20454;-72
2023/12/29 09:06:54;;;;;;;55.50;2.10;;;;;;;;;;4838184;29;20533;-71
2023/12/29 09:09:23;;;;;;;55.30;2.10;;;;;;;;;;4837133;29;20465;-70
2023/12/29 09:11:50;;;;;;;55.33;1.90;;;;;;;;;;4878466;29;20467;-69
2023/12/29 09:14:17;;;;;;;55.63;1.90;;;;;;;;;;4892418;29;20450;-72
2023/12/29 09:16:46;;;;;;;56.00;2.27;;;;;;;;;;4892108;29;20858;-71
2023/12/29 09:19:13;;;;;;;55.33;2.17;;;;;;;;;;4889915;29;20949;-72
2023/12/29 09:21:40;;;;;;;55.43;1.87;;;;;;;;;;4887097;29;20966;-71
2023/12/29 09:24:07;;;;;;;55.20;1.80;;;;;;;;;;4887209;29;20503;-71
2023/12/29 09:26:36;;;;;;;55.33;1.87;;;;;;;;;;4889269;29;20576;-71
2023/12/29 09:29:03;;;;;;;55.13;1.90;;;;;;;;;;4891831;29;20525;-72
2023/12/29 09:31:30;;;;;;;54.87;1.73;;;;;;;;;;4907857;29;20486;-71
2023/12/29 09:33:58;;;;;;;55.37;1.80;;;;;;;;;;4979757;28;20490;-72
2023/12/29 09:36:25;;;;;;;55.30;1.77;;;;;;;;;;4987717;28;20526;-72
2023/12/29 09:38:52;;;;;;;55.47;2.10;;;;;;;;;;4989224;28;20466;-71
2023/12/29 09:41:20;;;;;;;55.40;2.10;;;;;;;;;;4987967;28;20802;-70
2023/12/29 09:43:50;;;;;;;55.60;1.97;;;;;;;;;;4988022;28;20504;-71
2023/12/29 09:46:18;;;;;;;55.13;1.70;;;;;;;;;;4987550;28;20490;-71
2023/12/29 09:48:46;;;;;;;58.97;1.90;;;;;;;;;;4986879;28;20446;-69
2023/12/29 09:51:13;;;;;;;55.17;1.80;;;;;;;;;;4990747;28;20447;-71
2023/12/29 09:53:41;;;;;;;54.87;1.80;;;;;;;;;;4990638;28;20480;-68
2023/12/29 09:56:09;;;;;;;55.27;2.30;;;;;;;;;;4982710;28;20454;-69
2023/12/29 09:58:37;;;;;;;55.17;1.87;;;;;;;;;;4990685;28;20442;-70
2023/12/29 10:01:06;;;;;;;55.27;1.83;;;;;;;;;;4990664;28;20483;-69
2023/12/29 10:03:34;;;;;;;54.60;2.00;;;;;;;;;;4991185;28;20485;-71
2023/12/29 10:06:02;;;;;;;55.30;2.00;;;;;;;;;;4992170;28;20486;-70
2023/12/29 10:08:29;;;;;;;55.13;1.70;;;;;;;;;;4989043;28;20451;-71
2023/12/29 10:10:57;;;;;;;55.67;1.90;;;;;;;;;;5021936;28;20489;-70
2023/12/29 10:13:27;;;;;;;55.33;1.80;;;;;;;;;;5070137;28;20474;-70
2023/12/29 10:15:58;;;;;;;55.37;1.73;;;;;;;;;;5071707;28;20460;-70
2023/12/29 10:18:41;;;;;;;55.47;2.10;;;;;;;;;;5074933;28;20503;-69
2023/12/29 10:21:12;;;;;;;55.20;1.90;;;;;;;;;;5075372;28;20519;-67
2023/12/29 10:23:43;;;;;;;55.87;1.90;;;;;;;;;;5059977;28;20469;-67
2023/12/29 10:26:12;;;;;;;56.70;2.37;;;;;;;;;;5074324;28;20520;-70
2023/12/29 10:28:39;;;;;;;55.37;1.90;;;;;;;;;;5075551;28;20468;-67
2023/12/29 10:31:06;;;;;;;55.53;1.80;;;;;;;;;;5076192;28;20469;-67
2023/12/29 10:33:35;;;;;;;55.67;1.83;;;;;;;;;;5075654;28;20472;-68
2023/12/29 10:36:03;;;;;;;55.97;2.10;;;;;;;;;;5076320;28;20433;-69
2023/12/29 10:38:30;;;;;;;55.73;1.90;;;;;;;;;;5076045;28;20429;-68
2023/12/29 10:41:11;;;;;;;55.83;2.20;;;;;;;;;;5076099;28;20471;-69
2023/12/29 10:43:38;;;;;;;56.77;2.43;;;;;;;;;;5075510;28;20461;-68
2023/12/29 10:46:08;;;;;;;55.70;1.90;;;;;;;;;;5075664;28;20529;-67
2023/12/29 10:48:36;;;;;;;56.27;2.20;;;;;;;;;;5075653;28;20426;-68
2023/12/29 10:51:04;;;;;;;55.80;2.00;;;;;;;;;;5075039;28;20486;-67
2023/12/29 10:53:31;;;;;;;56.10;1.90;;;;;;;;;;5075422;28;20468;-69
2023/12/29 10:55:59;;;;;;;56.07;2.17;;;;;;;;;;5075613;28;20482;-68
2023/12/29 10:58:27;;;;;;;56.13;2.10;;;;;;;;;;5075362;28;20427;-68
2023/12/29 11:00:54;;;;;;;55.90;2.03;;;;;;;;;;5075238;28;20452;-69
2023/12/29 11:03:21;;;;;;;58.97;2.47;;;;;;;;;;5075376;28;20471;-69
2023/12/29 11:05:50;;;;;;;55.93;1.87;;;;;;;;;;5075778;28;20529;-68
2023/12/29 11:08:18;;;;;;;55.90;1.90;;;;;;;;;;5077738;28;20449;-69
2023/12/29 11:10:45;;;;;;;55.87;1.80;;;;;;;;;;5079529;28;20482;-69
2023/12/29 11:13:13;;;;;;;55.90;1.70;;;;;;;;;;5078777;28;20509;-69
2023/12/29 11:15:43;;;;;;;55.73;1.70;;;;;;;;;;5079427;28;20475;-68
2023/12/29 11:18:10;;;;;;;55.77;2.13;;;;;;;;;;5079315;28;20454;-69
2023/12/29 11:20:38;;;;;;;55.70;2.00;;;;;;;;;;5079287;28;20465;-68
2023/12/29 11:23:08;;;;;;;58.73;2.20;;;;;;;;;;5078823;28;20479;-68
2023/12/29 11:25:35;;;;;;;55.73;1.80;;;;;;;;;;5073148;28;20480;-69
2023/12/29 11:28:02;;;;;;;55.70;1.90;;;;;;;;;;5078924;28;20489;-69
2023/12/29 11:30:29;;;;;;;56.37;2.23;;;;;;;;;;5078874;28;20475;-68
2023/12/29 11:32:59;;;;;;;55.67;1.80;;;;;;;;;;5078862;28;20498;-69
2023/12/29 11:35:29;;;;;;;55.90;2.10;;;;;;;;;;5078906;28;20472;-69
2023/12/29 11:38:17;;;;;;;55.87;1.80;;;;;;;;;;5078824;28;20447;-69
2023/12/29 11:40:49;;;;;;;55.80;2.00;;;;;;;;;;5078481;28;20481;-68
2023/12/29 11:43:18;;;;;;;56.40;1.97;;;;;;;;;;5077996;28;20450;-69
2023/12/29 11:45:45;;;;;;;55.77;1.90;;;;;;;;;;5078320;28;20501;-68
2023/12/29 11:48:12;;;;;;;55.67;1.80;;;;;;;;;;5078276;28;20462;-68
2023/12/29 11:50:40;;;;;;;55.80;2.20;;;;;;;;;;5077958;28;20469;-70
2023/12/29 11:53:08;;;;;;;55.77;2.10;;;;;;;;;;5077706;28;20474;-68
2023/12/29 11:55:37;;;;;;;56.00;2.50;;;;;;;;;;5077382;28;20452;-70
2023/12/29 11:58:05;;;;;;;55.70;1.97;;;;;;;;;;5077291;28;20476;-68
2023/12/29 12:00:43;;;;;;;55.93;1.93;;;;;;;;;;5076722;28;20460;-67
2023/12/29 12:03:24;;;;;;;55.87;2.10;;;;;;;;;;5076952;28;20469;-68
2023/12/29 12:05:51;;;;;;;55.87;2.10;;;;;;;;;;5076622;28;20525;-69
2023/12/29 12:08:39;;;;;;;55.50;2.07;;;;;;;;;;5076401;28;20778;-69
2023/12/29 12:11:25;;;;;;;56.20;2.10;;;;;;;;;;5075549;28;20450;-71
2023/12/29 12:13:53;;;;;;;56.60;3.20;;;;;;;;;;5076321;28;20460;-71
2023/12/29 12:16:38;;;;;;;56.10;2.20;;;;;;;;;;5076344;28;20461;-71
2023/12/29 12:19:06;;;;;;;55.90;1.80;;;;;;;;;;5074855;28;20457;-69
2023/12/29 12:21:33;;;;;;;55.83;2.10;;;;;;;;;;5076302;28;20481;-68
2023/12/29 12:24:01;;;;;;;55.90;1.90;;;;;;;;;;5075639;28;20526;-69
2023/12/29 12:26:28;;;;;;;55.77;1.90;;;;;;;;;;5075991;28;20485;-70
2023/12/29 12:28:56;;;;;;;55.70;1.80;;;;;;;;;;5075587;28;20498;-68
2023/12/29 12:31:24;;;;;;;55.97;2.00;;;;;;;;;;5076366;28;20451;-69
2023/12/29 12:33:55;;;;;;;55.67;2.20;;;;;;;;;;5076208;28;20482;-69
2023/12/29 12:36:22;;;;;;;55.80;1.80;;;;;;;;;;5075746;28;20439;-72
2023/12/29 12:38:53;;;;;;;55.77;2.03;;;;;;;;;;5075418;28;20494;-68
2023/12/29 12:41:20;;;;;;;55.63;2.00;;;;;;;;;;5074901;28;20477;-69
2023/12/29 12:43:50;;;;;;;55.57;1.73;;;;;;;;;;5070983;28;21003;-71
2023/12/29 12:46:19;;;;;;;56.30;2.53;;;;;;;;;;5073886;28;20494;-69
2023/12/29 12:48:47;;;;;;;55.70;1.70;;;;;;;;;;5077051;28;20446;-69
2023/12/29 12:51:15;;;;;;;55.53;1.70;;;;;;;;;;5076854;28;20425;-71
2023/12/29 12:53:44;;;;;;;56.00;2.20;;;;;;;;;;5076476;28;20580;-69
2023/12/29 12:56:12;;;;;;;56.10;2.20;;;;;;;;;;5076809;28;20451;-69
2023/12/29 12:58:39;;;;;;;55.80;1.90;;;;;;;;;;5076826;28;20440;-68
2023/12/29 13:01:06;;;;;;;55.87;2.17;;;;;;;;;;5076402;28;20463;-69
2023/12/29 13:03:34;;;;;;;56.07;1.90;;;;;;;;;;5076032;28;20503;-68
2023/12/29 13:06:04;;;;;;;55.93;1.90;;;;;;;;;;5076348;28;20511;-67
2023/12/29 13:08:32;;;;;;;55.83;1.90;;;;;;;;;;5075877;28;20465;-72
2023/12/29 13:11:00;;;;;;;56.00;2.10;;;;;;;;;;5075957;28;20464;-69
2023/12/29 13:13:36;;;;;;;56.00;2.00;;;;;;;;;;5075619;28;20457;-69
2023/12/29 13:16:04;;;;;;;55.90;1.60;;;;;;;;;;5076284;28;20450;-68
2023/12/29 13:18:31;;;;;;;55.87;2.10;;;;;;;;;;5075150;28;20460;-69
2023/12/29 13:21:00;;;;;;;55.93;2.10;;;;;;;;;;5075089;28;20449;-69
2023/12/29 13:23:27;;;;;;;56.10;2.43;;;;;;;;;;5074724;28;20507;-70
2023/12/29 13:25:56;;;;;;;55.90;1.90;;;;;;;;;;5074999;28;20502;-69
2023/12/29 13:28:23;;;;;;;56.10;2.10;;;;;;;;;;5075261;28;20451;-70
2023/12/29 13:30:51;;;;;;;56.30;2.27;;;;;;;;;;5074574;28;20440;-70
2023/12/29 13:33:21;;;;;;;55.77;2.07;;;;;;;;;;5074746;28;20485;-69
2023/12/29 13:35:51;;;;;;;55.90;2.00;;;;;;;;;;5075041;28;20496;-70
2023/12/29 13:38:22;;;;;;;55.67;2.10;;;;;;;;;;5074818;28;20469;-69
2023/12/29 13:40:57;;;;;;;55.67;1.80;;;;;;;;;;5071105;28;20580;-70
2023/12/29 13:43:24;;;;;;;55.47;1.90;;;;;;;;;;5074366;28;20532;-69
2023/12/29 13:45:52;;;;;;;55.80;2.20;;;;;;;;;;5075169;28;20491;-68
2023/12/29 13:48:19;;;;;;;55.63;1.80;;;;;;;;;;5074878;28;20507;-68
2023/12/29 13:50:47;;;;;;;55.43;2.07;;;;;;;;;;5074762;28;20617;-71
2023/12/29 13:53:17;;;;;;;55.63;2.00;;;;;;;;;;5073796;28;20546;-72
2023/12/29 13:55:45;;;;;;;55.67;2.00;;;;;;;;;;5053871;28;20486;-70
2023/12/29 13:58:13;;;;;;;56.00;1.80;;;;;;;;;;5054060;28;20460;-68
2023/12/29 14:00:41;;;;;;;55.87;2.00;;;;;;;;;;5053944;28;20468;-71
2023/12/29 14:03:11;;;;;;;55.87;2.00;;;;;;;;;;5053026;28;20501;-71
2023/12/29 14:05:41;;;;;;;56.00;2.27;;;;;;;;;;5053760;28;20516;-69
2023/12/29 14:08:10;;;;;;;56.20;2.10;;;;;;;;;;5053829;28;20488;-69
2023/12/29 14:10:38;;;;;;;55.53;1.73;;;;;;;;;;5053261;28;20544;-70
2023/12/29 14:13:08;;;;;;;55.47;1.80;;;;;;;;;;5053181;28;20527;-70
2023/12/29 14:15:36;;;;;;;55.90;1.90;;;;;;;;;;5053475;28;20458;-69
2023/12/29 14:18:05;;;;;;;55.37;1.80;;;;;;;;;;5053078;28;20452;-69
2023/12/29 14:20:35;;;;;;;55.90;2.30;;;;;;;;;;5053251;28;20507;-69
2023/12/29 14:23:04;;;;;;;55.60;2.00;;;;;;;;;;5052757;28;20476;-70
2023/12/29 14:25:34;;;;;;;56.30;2.10;;;;;;;;;;5053831;28;20461;-69
2023/12/29 14:28:01;;;;;;;55.43;1.57;;;;;;;;;;5053825;28;20475;-72
2023/12/29 14:30:31;;;;;;;55.57;2.00;;;;;;;;;;5054773;28;20459;-68
2023/12/29 14:32:59;;;;;;;56.00;1.80;;;;;;;;;;5067697;28;20468;-68
2023/12/29 14:35:26;;;;;;;55.40;1.70;;;;;;;;;;5052155;28;20503;-69
2023/12/29 14:37:53;;;;;;;55.47;1.80;;;;;;;;;;5053653;28;20435;-71
2023/12/29 14:40:20;;;;;;;55.47;1.90;;;;;;;;;;5053390;28;20467;-70
2023/12/29 14:42:47;;;;;;;55.67;2.00;;;;;;;;;;5065999;28;20483;-71
2023/12/29 14:45:14;;;;;;;55.97;1.90;;;;;;;;;;5076612;28;20482;-70
2023/12/29 14:47:45;;;;;;;55.67;1.87;;;;;;;;;;5076649;28;20490;-71
2023/12/29 14:50:12;;;;;;;55.63;1.80;;;;;;;;;;5076468;28;20494;-69
2023/12/29 14:52:39;;;;;;;55.67;1.93;;;;;;;;;;5074407;28;20453;-68